createdAt,value
2022-07-27T00:01:00.042Z,102077.63
2022-07-27T00:03:26.586Z,102072.50
2022-07-27T00:05:53.063Z,102071.63
2022-07-27T00:08:20.773Z,102075.41
2022-07-27T00:10:47.880Z,102073.16
2022-07-27T00:13:14.373Z,102066.84
2022-07-27T00:15:40.812Z,102070.41
2022-07-27T00:18:07.215Z,102074.94
2022-07-27T00:20:33.611Z,102074.88
2022-07-27T00:23:00.096Z,102074.53
2022-07-27T00:25:27.585Z,102079.00
2022-07-27T00:27:56.680Z,102075.47
2022-07-27T00:30:23.676Z,102074.47
2022-07-27T00:32:50.101Z,102077.03
2022-07-27T00:35:16.515Z,102078.72
2022-07-27T00:37:43.078Z,102072.63
2022-07-27T00:40:10.207Z,102072.00
2022-07-27T00:42:36.649Z,102066.28
2022-07-27T00:45:04.473Z,102067.44
2022-07-27T00:47:32.170Z,102065.81
2022-07-27T00:49:59.591Z,102064.09
2022-07-27T00:52:28.041Z,102064.19
2022-07-27T00:54:55.058Z,102063.31
2022-07-27T00:57:22.253Z,102067.72
2022-07-27T00:59:48.685Z,102066.94
2022-07-27T01:02:19.507Z,102064.78
2022-07-27T01:04:47.398Z,102059.53
2022-07-27T01:07:14.991Z,102071.88
2022-07-27T01:09:57.682Z,102072.59
2022-07-27T01:12:27.284Z,102069.97
2022-07-27T01:14:55.245Z,102072.66
2022-07-27T01:17:21.922Z,102069.59
2022-07-27T01:19:48.373Z,102068.00
2022-07-27T01:22:15.127Z,102070.91
2022-07-27T01:24:42.006Z,102066.69
2022-07-27T01:27:08.635Z,102067.84
2022-07-27T01:29:36.661Z,102068.75
2022-07-27T01:32:04.299Z,102066.97
2022-07-27T01:34:33.496Z,102068.03
2022-07-27T01:37:01.690Z,102062.16
2022-07-27T01:39:28.515Z,102062.31
2022-07-27T01:41:55.055Z,102062.16
2022-07-27T01:44:21.472Z,102064.94
2022-07-27T01:46:48.054Z,102058.00
2022-07-27T01:49:15.366Z,102058.34
2022-07-27T01:51:42.141Z,102054.25
2022-07-27T01:54:08.703Z,102058.66
2022-07-27T01:56:35.119Z,102062.94
2022-07-27T01:59:01.674Z,102053.19
2022-07-27T02:01:28.182Z,102052.47
2022-07-27T02:03:54.579Z,102051.56
2022-07-27T02:06:20.949Z,102043.72
2022-07-27T02:08:47.403Z,102052.63
2022-07-27T02:11:32.545Z,102053.75
2022-07-27T02:13:58.887Z,102059.03
2022-07-27T02:16:25.355Z,102059.09
2022-07-27T02:18:52.328Z,102055.66
2022-07-27T02:21:18.773Z,102056.91
2022-07-27T02:23:46.894Z,102056.84
2022-07-27T02:26:13.324Z,102055.91
2022-07-27T02:28:39.885Z,102049.78
2022-07-27T02:31:06.272Z,102046.59
2022-07-27T02:33:33.441Z,102051.75
2022-07-27T02:35:59.964Z,102040.78
2022-07-27T02:38:26.398Z,102040.97
2022-07-27T02:40:52.971Z,102036.72
2022-07-27T02:43:19.383Z,102036.31
2022-07-27T02:45:46.465Z,102042.22
2022-07-27T02:48:13.146Z,102039.81
2022-07-27T02:50:39.719Z,102037.38
2022-07-27T02:53:06.145Z,102042.44
2022-07-27T02:55:32.686Z,102048.41
2022-07-27T02:57:59.046Z,102042.38
2022-07-27T03:00:25.622Z,102037.38
2022-07-27T03:02:52.070Z,102040.34
2022-07-27T03:05:18.758Z,102036.44
2022-07-27T03:07:45.308Z,102046.00
2022-07-27T03:10:11.690Z,102040.59
2022-07-27T03:12:38.096Z,102039.00
2022-07-27T03:15:05.156Z,102042.44
2022-07-27T03:17:32.813Z,102043.22
2022-07-27T03:19:59.310Z,102042.44
2022-07-27T03:22:25.829Z,102035.59
2022-07-27T03:24:52.269Z,102044.34
2022-07-27T03:27:18.740Z,102032.50
2022-07-27T03:29:45.839Z,102042.13
2022-07-27T03:32:12.229Z,102037.91
2022-07-27T03:34:38.724Z,102041.56
2022-07-27T03:37:05.117Z,102041.59
2022-07-27T03:39:31.671Z,102043.38
2022-07-27T03:41:58.129Z,102048.66
2022-07-27T03:44:24.499Z,102047.09
2022-07-27T03:46:50.853Z,102057.19
2022-07-27T03:49:17.479Z,102053.78
2022-07-27T03:51:44.233Z,102059.91
2022-07-27T03:54:10.716Z,102055.56
2022-07-27T03:56:37.160Z,102056.41
2022-07-27T03:59:03.682Z,102058.91
2022-07-27T04:01:30.165Z,102060.59
2022-07-27T04:03:56.713Z,102056.28
2022-07-27T04:06:23.074Z,102064.97
2022-07-27T04:08:49.553Z,102062.31
2022-07-27T04:11:18.777Z,102057.19
2022-07-27T04:13:48.374Z,102064.34
2022-07-27T04:16:14.978Z,102067.06
2022-07-27T04:18:41.706Z,102064.38
2022-07-27T04:21:08.169Z,102066.22
2022-07-27T04:23:38.276Z,102071.56
2022-07-27T04:26:05.186Z,102077.50
2022-07-27T04:28:32.636Z,102069.38
2022-07-27T04:30:59.334Z,102065.19
2022-07-27T04:33:25.927Z,102077.47
2022-07-27T04:35:52.689Z,102068.78
2022-07-27T04:38:19.275Z,102067.06
2022-07-27T04:40:45.864Z,102069.63
2022-07-27T04:43:12.406Z,102079.94
2022-07-27T04:45:39.047Z,102092.84
2022-07-27T04:48:07.453Z,102092.16
2022-07-27T04:50:42.806Z,102091.19
2022-07-27T04:53:10.740Z,102093.69
2022-07-27T04:55:41.750Z,102097.03
2022-07-27T04:58:08.201Z,102100.53
2022-07-27T05:00:34.900Z,102103.03
2022-07-27T05:03:01.483Z,102100.19
2022-07-27T05:05:28.081Z,102099.47
2022-07-27T05:07:54.571Z,102094.16
2022-07-27T05:10:21.253Z,102097.44
2022-07-27T05:12:48.998Z,102098.03
2022-07-27T05:15:16.606Z,102098.03
2022-07-27T05:17:43.296Z,102098.94
2022-07-27T05:20:11.051Z,102102.44
2022-07-27T05:22:40.115Z,102104.00
2022-07-27T05:25:08.138Z,102102.22
2022-07-27T05:27:34.869Z,102111.91
2022-07-27T05:30:01.412Z,102115.16
2022-07-27T05:32:29.198Z,102113.22
2022-07-27T05:34:55.742Z,102120.00
2022-07-27T05:37:22.148Z,102125.16
2022-07-27T05:39:49.415Z,102132.16
2022-07-27T05:42:15.919Z,102130.97
2022-07-27T05:44:42.500Z,102120.25
2022-07-27T05:47:11.583Z,102124.59
2022-07-27T05:49:38.379Z,102128.97
2022-07-27T05:52:05.216Z,102129.66
2022-07-27T05:54:31.666Z,102131.22
2022-07-27T05:56:59.445Z,102134.44
2022-07-27T05:59:25.949Z,102126.53
2022-07-27T06:01:52.492Z,102129.97
2022-07-27T06:04:19.057Z,102128.88
2022-07-27T06:07:04.463Z,102135.41
2022-07-27T06:09:31.004Z,102135.97
2022-07-27T06:11:57.672Z,102131.38
2022-07-27T06:14:24.135Z,102133.94
2022-07-27T06:16:54.735Z,102138.69
2022-07-27T06:19:21.655Z,102139.91
2022-07-27T06:21:53.388Z,102141.84
2022-07-27T06:24:20.372Z,102133.88
2022-07-27T06:26:47.043Z,102143.41
2022-07-27T06:29:13.745Z,102137.06
2022-07-27T06:31:40.633Z,102130.78
2022-07-27T06:34:11.748Z,102130.34
2022-07-27T06:36:39.914Z,102129.06
2022-07-27T06:39:06.674Z,102125.38
2022-07-27T06:41:34.581Z,102129.44
2022-07-27T06:44:01.109Z,102133.22
2022-07-27T06:46:27.683Z,102126.91
2022-07-27T06:48:56.736Z,102125.53
2022-07-27T06:51:24.213Z,102129.41
2022-07-27T06:53:53.238Z,102132.72
2022-07-27T06:56:21.219Z,102134.13
2022-07-27T06:58:48.683Z,102129.25
2022-07-27T07:01:15.296Z,102121.69
2022-07-27T07:03:41.933Z,102127.56
2022-07-27T07:06:08.462Z,102124.44
2022-07-27T07:08:35.796Z,102127.81
2022-07-27T07:11:02.549Z,102137.28
2022-07-27T07:13:29.209Z,102138.44
2022-07-27T07:15:56.627Z,102142.38
2022-07-27T07:18:23.256Z,102142.66
2022-07-27T07:20:49.935Z,102146.56
2022-07-27T07:23:16.476Z,102145.88
2022-07-27T07:25:43.006Z,102146.56
2022-07-27T07:28:09.664Z,102157.50
2022-07-27T07:30:36.532Z,102143.66
2022-07-27T07:33:03.164Z,102151.09
2022-07-27T07:35:29.865Z,102150.50
2022-07-27T07:37:56.742Z,102151.84
2022-07-27T07:43:09.813Z,102160.22
2022-07-27T07:45:45.174Z,102159.25
2022-07-27T07:48:18.594Z,102156.34
2022-07-27T07:50:45.080Z,102155.19
2022-07-27T07:53:11.742Z,102157.03
2022-07-27T07:55:41.702Z,102163.50
2022-07-27T07:58:10.219Z,102160.34
2022-07-27T08:00:36.803Z,102166.78
2022-07-27T08:03:03.997Z,102173.13
2022-07-27T08:05:33.034Z,102181.06
2022-07-27T08:07:59.660Z,102182.13
2022-07-27T08:10:28.016Z,102169.78
2022-07-27T08:12:56.482Z,102167.19
2022-07-27T08:15:30.053Z,102165.50
2022-07-27T08:18:02.523Z,102165.81
2022-07-27T08:20:29.159Z,102175.41
2022-07-27T08:22:56.930Z,102169.38
2022-07-27T08:25:23.479Z,102170.94
2022-07-27T08:27:51.651Z,102174.38
2022-07-27T08:30:18.114Z,102166.34
2022-07-27T08:32:48.341Z,102166.72
2022-07-27T08:35:18.323Z,102168.09
2022-07-27T08:37:45.870Z,102167.94
2022-07-27T08:43:02.007Z,102168.59
2022-07-27T08:45:30.725Z,102162.28
2022-07-27T08:47:57.467Z,102166.88
2022-07-27T08:50:24.736Z,102174.81
2022-07-27T08:53:05.013Z,102174.41
2022-07-27T08:55:43.325Z,102184.97
2022-07-27T08:58:11.649Z,102188.25
2022-07-27T09:00:40.733Z,102178.41
2022-07-27T09:03:07.891Z,102187.59
2022-07-27T09:05:46.758Z,102185.91
2022-07-27T09:08:17.738Z,102181.75
2022-07-27T09:10:44.919Z,102177.59
2022-07-27T09:13:20.371Z,102176.84
2022-07-27T09:16:16.146Z,102173.53
2022-07-27T09:18:40.268Z,102170.16
2022-07-27T09:21:24.260Z,102177.91
2022-07-27T09:24:44.416Z,102177.31
2022-07-27T09:27:04.087Z,102173.19
2022-07-27T09:29:34.636Z,102185.06
2022-07-27T09:32:01.167Z,102178.19
2022-07-27T09:34:30.976Z,102184.97
2022-07-27T09:36:59.195Z,102175.34
2022-07-27T09:39:27.813Z,102169.19
2022-07-27T09:41:57.300Z,102167.00
2022-07-27T09:44:42.265Z,102162.53
2022-07-27T09:47:22.591Z,102174.66
2022-07-27T09:49:49.207Z,102173.22
2022-07-27T09:52:27.297Z,102173.16
2022-07-27T09:54:54.293Z,102176.59
2022-07-27T09:57:20.928Z,102165.97
2022-07-27T09:59:47.490Z,102181.78
2022-07-27T10:02:14.626Z,102180.91
2022-07-27T10:04:41.804Z,102185.97
2022-07-27T10:07:13.237Z,102183.69
2022-07-27T10:09:40.730Z,102179.53
2022-07-27T10:12:07.748Z,102181.41
2022-07-27T10:14:35.261Z,102174.28
2022-07-27T10:17:02.591Z,102179.28
2022-07-27T10:19:45.722Z,102174.63
2022-07-27T10:22:13.677Z,102184.72
2022-07-27T10:24:40.156Z,102176.81
2022-07-27T10:27:29.354Z,102180.53
2022-07-27T10:29:57.289Z,102166.59
2022-07-27T10:32:31.189Z,102176.47
2022-07-27T10:34:58.856Z,102181.59
2022-07-27T10:37:34.258Z,102168.69
2022-07-27T10:40:25.390Z,102172.13
2022-07-27T10:43:07.127Z,102168.94
2022-07-27T10:45:55.194Z,102163.44
2022-07-27T10:48:44.157Z,102162.88
2022-07-27T10:51:16.300Z,102155.44
2022-07-27T10:54:11.121Z,102155.06
2022-07-27T10:56:48.075Z,102153.13
2022-07-27T10:59:15.133Z,102159.84
2022-07-27T11:01:58.463Z,102154.13
2022-07-27T11:04:25.584Z,102152.22
2022-07-27T11:07:23.413Z,102146.19
2022-07-27T11:12:30.655Z,102150.06
2022-07-27T11:14:58.189Z,102149.50
2022-07-27T11:20:22.732Z,102142.81
2022-07-27T11:25:35.808Z,102141.00
2022-07-27T11:28:07.339Z,102136.28
2022-07-27T11:30:34.017Z,102125.22
2022-07-27T11:33:04.677Z,102132.25
2022-07-27T11:35:31.186Z,102131.91
2022-07-27T11:37:59.604Z,102138.06
2022-07-27T11:43:13.090Z,102128.97
2022-07-27T11:45:43.071Z,102134.50
2022-07-27T11:48:10.657Z,102132.72
2022-07-27T11:50:57.137Z,102133.16
2022-07-27T11:53:23.632Z,102139.41
2022-07-27T11:55:50.317Z,102146.56
2022-07-27T11:58:18.601Z,102147.66
2022-07-27T12:00:45.294Z,102148.28
2022-07-27T12:03:23.493Z,102152.78
2022-07-27T12:05:59.251Z,102162.44
2022-07-27T12:08:26.245Z,102156.94
2022-07-27T12:11:00.090Z,102144.41
2022-07-27T12:13:35.451Z,102146.50
2022-07-27T12:16:02.427Z,102151.69
2022-07-27T12:18:45.421Z,102143.91
2022-07-27T12:21:19.854Z,102151.41
2022-07-27T12:23:54.868Z,102151.41
2022-07-27T12:26:25.575Z,102143.81
2022-07-27T12:29:13.576Z,102147.03
2022-07-27T12:31:48.751Z,102149.09
2022-07-27T12:34:15.698Z,102148.88
2022-07-27T12:36:42.738Z,102142.03
2022-07-27T12:39:27.738Z,102132.03
2022-07-27T12:42:21.420Z,102135.84
2022-07-27T12:44:48.592Z,102134.03
2022-07-27T12:47:34.138Z,102135.28
2022-07-27T12:50:03.428Z,102142.19
2022-07-27T12:52:30.535Z,102137.75
2022-07-27T12:54:57.570Z,102137.75
2022-07-27T12:57:46.643Z,102147.25
2022-07-27T13:00:17.016Z,102149.97
2022-07-27T13:02:44.213Z,102150.31
2022-07-27T13:05:12.694Z,102158.13
2022-07-27T13:07:41.050Z,102151.97
2022-07-27T13:10:10.124Z,102148.34
2022-07-27T13:12:37.747Z,102147.16
2022-07-27T13:15:09.912Z,102151.50
2022-07-27T13:17:37.019Z,102154.31
2022-07-27T13:20:10.890Z,102149.69
2022-07-27T13:22:40.268Z,102144.31
2022-07-27T13:25:15.656Z,102139.56
2022-07-27T13:27:47.991Z,102137.91
2022-07-27T13:30:16.944Z,102126.41
2022-07-27T13:32:44.284Z,102138.97
2022-07-27T13:35:14.398Z,102142.91
2022-07-27T13:37:42.029Z,102139.19
2022-07-27T13:40:10.075Z,102133.44
2022-07-27T13:42:37.568Z,102140.53
2022-07-27T13:45:10.274Z,102131.44
2022-07-27T13:47:40.100Z,102133.53
2022-07-27T13:50:16.731Z,102127.94
2022-07-27T13:52:45.034Z,102124.88
2022-07-27T13:55:13.082Z,102125.28
2022-07-27T13:57:39.579Z,102121.38
2022-07-27T14:00:06.846Z,102121.03
2022-07-27T14:02:33.490Z,102116.78
2022-07-27T14:05:00.136Z,102110.41
2022-07-27T14:07:28.928Z,102110.91
2022-07-27T14:10:15.660Z,102103.56
2022-07-27T14:12:42.678Z,102107.88
2022-07-27T14:15:09.650Z,102103.69
2022-07-27T14:17:37.596Z,102101.03
2022-07-27T14:20:08.303Z,102104.66
2022-07-27T14:22:34.734Z,102104.06
2022-07-27T14:25:01.181Z,102081.78
2022-07-27T14:27:36.785Z,102091.75
2022-07-27T14:30:06.733Z,102090.44
2022-07-27T14:32:34.149Z,102087.31
2022-07-27T14:35:01.074Z,102080.66
2022-07-27T14:37:27.571Z,102083.31
2022-07-27T14:39:54.020Z,102074.38
2022-07-27T14:42:22.345Z,102079.56
2022-07-27T14:44:49.238Z,102074.41
2022-07-27T14:47:15.792Z,102074.84
2022-07-27T14:49:42.458Z,102077.38
2022-07-27T14:52:13.518Z,102077.03
2022-07-27T14:54:44.428Z,102074.09
2022-07-27T14:57:11.397Z,102068.03
2022-07-27T14:59:39.636Z,102070.66
2022-07-27T15:02:07.636Z,102072.06
2022-07-27T15:04:34.340Z,102075.28
2022-07-27T15:07:02.281Z,102074.56
2022-07-27T15:09:32.139Z,102066.16
2022-07-27T15:11:59.765Z,102065.47
2022-07-27T15:14:27.392Z,102066.50
2022-07-27T15:16:54.959Z,102069.75
2022-07-27T15:19:21.846Z,102076.16
2022-07-27T15:21:48.826Z,102070.63
2022-07-27T15:24:15.928Z,102069.81
2022-07-27T15:26:43.639Z,102075.84
2022-07-27T15:29:15.103Z,102065.22
2022-07-27T15:31:42.605Z,102063.31
2022-07-27T15:34:10.160Z,102065.94
2022-07-27T15:36:43.638Z,102069.22
2022-07-27T15:39:13.380Z,102066.63
2022-07-27T15:41:40.138Z,102072.47
2022-07-27T15:44:07.644Z,102066.88
2022-07-27T15:46:34.728Z,102056.09
2022-07-27T15:49:01.605Z,102051.63
2022-07-27T15:51:28.422Z,102054.41
2022-07-27T15:53:55.907Z,102053.34
2022-07-27T15:56:23.253Z,102057.66
2022-07-27T15:58:50.190Z,102049.25
2022-07-27T16:01:16.891Z,102049.97
2022-07-27T16:03:48.343Z,102039.47
2022-07-27T16:06:14.993Z,102053.44
2022-07-27T16:08:43.733Z,102050.81
2022-07-27T16:11:10.642Z,102055.13
2022-07-27T16:13:37.131Z,102051.13
2022-07-27T16:16:22.338Z,102053.22
2022-07-27T16:18:51.059Z,102048.34
2022-07-27T16:21:17.701Z,102047.84
2022-07-27T16:23:44.234Z,102048.75
2022-07-27T16:26:11.180Z,102047.91
2022-07-27T16:28:40.466Z,102043.47
2022-07-27T16:31:08.882Z,102044.78
2022-07-27T16:33:35.688Z,102046.22
2022-07-27T16:36:02.416Z,102053.19
2022-07-27T16:38:29.596Z,102046.97
2022-07-27T16:40:56.137Z,102051.38
2022-07-27T16:43:22.928Z,102046.69
2022-07-27T16:46:02.603Z,102041.91
2022-07-27T16:48:38.657Z,102042.00
2022-07-27T16:51:10.899Z,102039.22
2022-07-27T16:53:39.059Z,102041.16
2022-07-27T16:56:06.864Z,102039.66
2022-07-27T16:58:33.861Z,102040.31
2022-07-27T17:01:00.657Z,102042.13
2022-07-27T17:03:27.299Z,102041.59
2022-07-27T17:05:54.289Z,102048.53
2022-07-27T17:08:20.813Z,102030.25
2022-07-27T17:10:54.314Z,102040.56
2022-07-27T17:13:21.258Z,102045.88
2022-07-27T17:15:47.943Z,102035.31
2022-07-27T17:18:17.424Z,102036.53
2022-07-27T17:20:44.065Z,102038.31
2022-07-27T17:23:12.015Z,102036.97
2022-07-27T17:25:38.781Z,102031.06
2022-07-27T17:28:05.279Z,102043.84
2022-07-27T17:30:36.409Z,102043.50
2022-07-27T17:33:04.866Z,102038.66
2022-07-27T17:35:32.057Z,102044.38
2022-07-27T17:38:06.706Z,102032.91
2022-07-27T17:40:34.435Z,102039.03
2022-07-27T17:43:00.980Z,102039.31
2022-07-27T17:45:27.550Z,102040.16
2022-07-27T17:47:54.728Z,102037.75
2022-07-27T17:50:21.226Z,102042.66
2022-07-27T17:52:47.721Z,102035.91
2022-07-27T17:55:14.362Z,102041.75
2022-07-27T17:57:40.793Z,102040.47
2022-07-27T18:00:11.034Z,102050.34
2022-07-27T18:02:39.508Z,102039.75
2022-07-27T18:05:06.657Z,102035.59
2022-07-27T18:07:40.053Z,102043.03
2022-07-27T18:10:08.202Z,102045.19
2022-07-27T18:12:37.592Z,102035.91
2022-07-27T18:15:23.396Z,102048.34
2022-07-27T18:17:49.814Z,102036.50
2022-07-27T18:20:16.285Z,102041.69
2022-07-27T18:22:42.979Z,102042.34
2022-07-27T18:25:10.317Z,102046.31
2022-07-27T18:27:38.549Z,102047.22
2022-07-27T18:30:08.789Z,102046.78
2022-07-27T18:32:35.869Z,102043.19
2022-07-27T18:35:02.329Z,102040.03
2022-07-27T18:37:28.743Z,102048.44
2022-07-27T18:40:00.668Z,102048.22
2022-07-27T18:42:27.292Z,102045.72
2022-07-27T18:44:54.197Z,102046.47
2022-07-27T18:47:20.674Z,102053.81
2022-07-27T18:49:47.208Z,102048.25
2022-07-27T18:52:13.712Z,102051.72
2022-07-27T18:54:40.150Z,102055.25
2022-07-27T18:57:06.796Z,102054.84
2022-07-27T18:59:40.985Z,102053.16
2022-07-27T19:02:08.187Z,102057.19
2022-07-27T19:04:34.844Z,102058.06
2022-07-27T19:07:01.305Z,102062.19
2022-07-27T19:09:28.263Z,102060.47
2022-07-27T19:11:54.683Z,102066.59
2022-07-27T19:14:22.993Z,102068.00
2022-07-27T19:16:51.144Z,102064.19
2022-07-27T19:19:23.080Z,102063.69
2022-07-27T19:21:52.769Z,102073.50
2022-07-27T19:24:19.193Z,102079.81
2022-07-27T19:26:45.740Z,102077.41
2022-07-27T19:29:13.236Z,102076.75
2022-07-27T19:31:40.186Z,102081.19
2022-07-27T19:34:06.972Z,102082.66
2022-07-27T19:36:33.543Z,102083.31
2022-07-27T19:39:03.021Z,102093.88
2022-07-27T19:41:33.743Z,102094.56
2022-07-27T19:44:00.209Z,102097.41
2022-07-27T19:46:26.713Z,102099.53
2022-07-27T19:48:53.285Z,102100.78
2022-07-27T19:51:19.739Z,102096.56
2022-07-27T19:53:46.411Z,102098.22
2022-07-27T19:56:13.494Z,102104.88
2022-07-27T19:58:40.273Z,102109.72
2022-07-27T20:01:09.488Z,102109.41
2022-07-27T20:03:52.055Z,102113.72
2022-07-27T20:06:21.343Z,102118.03
2022-07-27T20:08:48.082Z,102121.28
2022-07-27T20:11:14.521Z,102118.41
2022-07-27T20:13:41.024Z,102124.63
2022-07-27T20:16:07.673Z,102121.06
2022-07-27T20:18:35.581Z,102121.53
2022-07-27T20:21:02.326Z,102122.94
2022-07-27T20:23:29.093Z,102126.94
2022-07-27T20:25:58.198Z,102115.34
2022-07-27T20:28:24.595Z,102122.81
2022-07-27T20:30:53.700Z,102134.50
2022-07-27T20:33:22.836Z,102126.88
2022-07-27T20:35:49.606Z,102124.25
2022-07-27T20:38:16.081Z,102121.69
2022-07-27T20:40:42.652Z,102129.31
2022-07-27T20:43:09.211Z,102132.25
2022-07-27T20:45:35.770Z,102131.09
2022-07-27T20:48:02.267Z,102129.50
2022-07-27T20:50:28.800Z,102130.06
2022-07-27T20:52:55.201Z,102128.78
2022-07-27T20:55:21.764Z,102122.97
2022-07-27T20:57:48.200Z,102124.09
2022-07-27T21:00:17.246Z,102134.81
2022-07-27T21:02:44.138Z,102127.28
2022-07-27T21:05:10.628Z,102126.81
2022-07-27T21:07:37.114Z,102136.97
2022-07-27T21:10:04.746Z,102134.44
2022-07-27T21:12:31.276Z,102133.41
2022-07-27T21:14:58.256Z,102125.44
2022-07-27T21:17:27.085Z,102132.56
2022-07-27T21:19:53.923Z,102132.75
2022-07-27T21:22:20.419Z,102140.38
2022-07-27T21:24:46.835Z,102144.69
2022-07-27T21:27:16.183Z,102137.06
2022-07-27T21:29:47.641Z,102135.75
2022-07-27T21:32:14.132Z,102129.94
2022-07-27T21:34:40.598Z,102136.03
2022-07-27T21:37:07.064Z,102132.50
2022-07-27T21:39:33.745Z,102135.88
2022-07-27T21:42:02.451Z,102130.22
2022-07-27T21:44:29.875Z,102127.72
2022-07-27T21:46:57.437Z,102131.00
2022-07-27T21:49:34.078Z,102125.16
2022-07-27T21:52:01.298Z,102124.22
2022-07-27T21:54:27.803Z,102117.63
2022-07-27T21:56:56.071Z,102121.84
2022-07-27T21:59:22.671Z,102123.25
2022-07-27T22:01:49.128Z,102132.09
2022-07-27T22:04:16.599Z,102131.59
2022-07-27T22:06:43.751Z,102137.13
2022-07-27T22:09:10.452Z,102138.09
2022-07-27T22:11:36.950Z,102139.69
2022-07-27T22:14:03.340Z,102142.66
2022-07-27T22:16:30.062Z,102141.81
2022-07-27T22:18:57.430Z,102143.50
2022-07-27T22:21:23.950Z,102144.63
2022-07-27T22:23:50.579Z,102143.09
2022-07-27T22:26:17.549Z,102142.09
2022-07-27T22:28:44.375Z,102143.69
2022-07-27T22:31:21.724Z,102141.81
2022-07-27T22:33:50.040Z,102142.34
2022-07-27T22:36:16.453Z,102145.50
2022-07-27T22:38:42.912Z,102141.19
2022-07-27T22:41:09.443Z,102141.69
2022-07-27T22:43:36.308Z,102153.09
2022-07-27T22:46:06.224Z,102148.25
2022-07-27T22:48:32.853Z,102145.28
2022-07-27T22:50:59.341Z,102147.41
2022-07-27T22:53:25.751Z,102150.03
2022-07-27T22:55:52.222Z,102153.66
2022-07-27T22:58:18.695Z,102147.25
2022-07-27T23:00:45.287Z,102145.28
2022-07-27T23:03:11.867Z,102149.78
2022-07-27T23:05:38.482Z,102150.69
2022-07-27T23:08:05.396Z,102146.03
2022-07-27T23:10:47.096Z,102144.75
2022-07-27T23:13:25.452Z,102144.75
2022-07-27T23:16:00.007Z,102144.31
2022-07-27T23:18:26.513Z,102146.78
2022-07-27T23:20:53.310Z,102147.69
2022-07-27T23:23:19.837Z,102143.66
2022-07-27T23:25:48.729Z,102143.34
2022-07-27T23:28:16.767Z,102147.78
2022-07-27T23:30:44.172Z,102134.72
2022-07-27T23:33:10.956Z,102137.44
2022-07-27T23:35:37.619Z,102131.56
2022-07-27T23:38:04.074Z,102129.19
2022-07-27T23:40:30.835Z,102125.88
2022-07-27T23:42:57.408Z,102133.53
2022-07-27T23:45:23.925Z,102129.97
2022-07-27T23:47:50.492Z,102127.09
2022-07-27T23:50:17.257Z,102130.34
2022-07-27T23:52:46.583Z,102129.19
2022-07-27T23:55:13.033Z,102126.97
2022-07-27T23:57:39.608Z,102129.75
